sensor_id;sensor_type;location;lat;lon;timestamp;P1;durP1;ratioP1;P2;durP2;ratioP2
6860;SDS011;3469;47.060;15.460;2023-01-25T06:26:10;29.37;;;18.00;;
6860;SDS011;3469;47.060;15.460;2023-01-25T06:30:46;24.50;;;13.77;;
6860;SDS011;3469;47.060;15.460;2023-01-25T08:13:08;26.27;;;13.82;;
6860;SDS011;3469;47.060;15.460;2023-01-25T08:15:39;31.40;;;16.43;;
6860;SDS011;3469;47.060;15.460;2023-01-25T09:00:46;23.73;;;14.23;;
6860;SDS011;3469;47.060;15.460;2023-01-25T09:03:16;24.30;;;15.60;;
6860;SDS011;3469;47.060;15.460;2023-01-25T09:05:48;26.90;;;15.63;;
6860;SDS011;3469;47.060;15.460;2023-01-25T09:08:18;19.20;;;13.43;;
6860;SDS011;3469;47.060;15.460;2023-01-25T09:10:48;22.30;;;12.80;;
6860;SDS011;3469;47.060;15.460;2023-01-25T09:20:52;24.37;;;15.53;;
6860;SDS011;3469;47.060;15.460;2023-01-25T09:23:25;23.73;;;14.70;;
6860;SDS011;3469;47.060;15.460;2023-01-25T09:30:53;20.80;;;13.40;;
6860;SDS011;3469;47.060;15.460;2023-01-25T09:37:58;15.23;;;9.43;;
6860;SDS011;3469;47.060;15.460;2023-01-25T09:43:31;16.80;;;10.07;;
6860;SDS011;3469;47.060;15.460;2023-01-25T09:47:53;15.40;;;10.57;;
6860;SDS011;3469;47.060;15.460;2023-01-25T09:54:38;17.03;;;10.07;;
6860;SDS011;3469;47.060;15.460;2023-01-25T09:58:19;14.67;;;8.97;;
6860;SDS011;3469;47.060;15.460;2023-01-25T10:04:34;18.70;;;10.10;;
6860;SDS011;3469;47.060;15.460;2023-01-25T10:08:35;14.87;;;9.53;;
6860;SDS011;3469;47.060;15.460;2023-01-25T10:11:12;16.43;;;10.70;;
6860;SDS011;3469;47.060;15.460;2023-01-25T10:15:51;29.20;;;9.77;;
6860;SDS011;3469;47.060;15.460;2023-01-25T10:23:23;14.37;;;9.80;;
6860;SDS011;3469;47.060;15.460;2023-01-25T10:26:01;18.03;;;11.37;;
6860;SDS011;3469;47.060;15.460;2023-01-25T10:28:41;19.37;;;12.70;;
6860;SDS011;3469;47.060;15.460;2023-01-25T10:31:15;18.80;;;12.07;;
6860;SDS011;3469;47.060;15.460;2023-01-25T10:34:51;22.63;;;11.93;;
6860;SDS011;3469;47.060;15.460;2023-01-25T10:41:25;24.30;;;12.57;;
6860;SDS011;3469;47.060;15.460;2023-01-25T10:45:09;19.97;;;12.00;;
6860;SDS011;3469;47.060;15.460;2023-01-25T10:47:40;18.70;;;11.40;;
6860;SDS011;3469;47.060;15.460;2023-01-25T10:54:12;21.20;;;13.27;;
6860;SDS011;3469;47.060;15.460;2023-01-25T10:56:47;20.83;;;11.73;;
6860;SDS011;3469;47.060;15.460;2023-01-25T10:59:19;23.17;;;13.50;;
6860;SDS011;3469;47.060;15.460;2023-01-25T11:05:19;18.67;;;12.67;;
6860;SDS011;3469;47.060;15.460;2023-01-25T11:07:56;19.67;;;12.57;;
6860;SDS011;3469;47.060;15.460;2023-01-25T11:10:30;21.67;;;13.73;;
6860;SDS011;3469;47.060;15.460;2023-01-25T11:13:47;23.90;;;14.80;;
6860;SDS011;3469;47.060;15.460;2023-01-25T11:16:31;21.53;;;15.10;;
6860;SDS011;3469;47.060;15.460;2023-01-25T11:19:20;21.30;;;14.87;;
6860;SDS011;3469;47.060;15.460;2023-01-25T11:22:19;20.67;;;13.43;;
6860;SDS011;3469;47.060;15.460;2023-01-25T11:24:52;20.97;;;14.23;;
6860;SDS011;3469;47.060;15.460;2023-01-25T11:27:24;24.93;;;13.90;;
6860;SDS011;3469;47.060;15.460;2023-01-25T11:30:06;20.80;;;14.10;;
6860;SDS011;3469;47.060;15.460;2023-01-25T11:32:38;23.83;;;14.70;;
6860;SDS011;3469;47.060;15.460;2023-01-25T11:36:08;21.83;;;14.07;;
6860;SDS011;3469;47.060;15.460;2023-01-25T11:40:25;27.00;;;15.10;;
6860;SDS011;3469;47.060;15.460;2023-01-25T11:43:21;25.80;;;15.20;;
6860;SDS011;3469;47.060;15.460;2023-01-25T11:47:45;22.33;;;14.27;;
6860;SDS011;3469;47.060;15.460;2023-01-25T11:52:19;23.53;;;15.57;;
6860;SDS011;3469;47.060;15.460;2023-01-25T11:54:58;24.63;;;15.00;;
6860;SDS011;3469;47.060;15.460;2023-01-25T12:08:45;24.57;;;14.60;;
6860;SDS011;3469;47.060;15.460;2023-01-25T12:13:16;26.00;;;15.93;;
6860;SDS011;3469;47.060;15.460;2023-01-25T12:15:54;26.67;;;15.57;;
6860;SDS011;3469;47.060;15.460;2023-01-25T12:18:50;24.60;;;15.53;;
6860;SDS011;3469;47.060;15.460;2023-01-25T12:21:32;30.00;;;16.33;;
6860;SDS011;3469;47.060;15.460;2023-01-25T12:25:13;23.50;;;15.93;;
6860;SDS011;3469;47.060;15.460;2023-01-25T12:27:57;27.20;;;17.77;;
6860;SDS011;3469;47.060;15.460;2023-01-25T12:30:40;28.70;;;18.30;;
6860;SDS011;3469;47.060;15.460;2023-01-25T12:33:32;29.07;;;17.17;;
6860;SDS011;3469;47.060;15.460;2023-01-25T12:36:56;28.83;;;16.63;;
6860;SDS011;3469;47.060;15.460;2023-01-25T12:43:56;28.53;;;15.83;;
6860;SDS011;3469;47.060;15.460;2023-01-25T12:48:16;25.33;;;15.20;;
6860;SDS011;3469;47.060;15.460;2023-01-25T12:50:54;27.53;;;15.43;;
6860;SDS011;3469;47.060;15.460;2023-01-25T12:54:39;22.93;;;14.00;;
6860;SDS011;3469;47.060;15.460;2023-01-25T12:57:18;25.10;;;15.23;;
6860;SDS011;3469;47.060;15.460;2023-01-25T12:59:56;23.00;;;14.57;;
6860;SDS011;3469;47.060;15.460;2023-01-25T13:03:48;27.30;;;15.57;;
6860;SDS011;3469;47.060;15.460;2023-01-25T13:08:14;24.10;;;13.97;;
6860;SDS011;3469;47.060;15.460;2023-01-25T13:12:50;26.33;;;13.90;;
6860;SDS011;3469;47.060;15.460;2023-01-25T13:22:12;26.37;;;16.03;;
6860;SDS011;3469;47.060;15.460;2023-01-25T13:41:06;19.40;;;12.50;;
6860;SDS011;3469;47.060;15.460;2023-01-25T13:44:17;16.80;;;10.97;;
6860;SDS011;3469;47.060;15.460;2023-01-25T13:46:49;21.60;;;13.13;;
6860;SDS011;3469;47.060;15.460;2023-01-25T13:49:21;16.13;;;11.73;;
6860;SDS011;3469;47.060;15.460;2023-01-25T13:56:25;20.23;;;11.17;;
6860;SDS011;3469;47.060;15.460;2023-01-25T13:58:56;19.80;;;12.77;;
6860;SDS011;3469;47.060;15.460;2023-01-25T14:01:26;19.10;;;12.10;;
6860;SDS011;3469;47.060;15.460;2023-01-25T14:07:27;16.67;;;11.33;;
6860;SDS011;3469;47.060;15.460;2023-01-25T14:10:32;18.57;;;11.93;;
6860;SDS011;3469;47.060;15.460;2023-01-25T14:21:30;16.47;;;11.60;;
6860;SDS011;3469;47.060;15.460;2023-01-25T14:24:07;21.27;;;11.73;;
6860;SDS011;3469;47.060;15.460;2023-01-25T14:27:52;16.67;;;11.60;;
6860;SDS011;3469;47.060;15.460;2023-01-25T14:31:29;16.70;;;10.77;;
6860;SDS011;3469;47.060;15.460;2023-01-25T14:34:13;22.83;;;12.83;;
6860;SDS011;3469;47.060;15.460;2023-01-25T14:37:06;20.50;;;12.80;;
6860;SDS011;3469;47.060;15.460;2023-01-25T14:39:42;20.60;;;12.40;;
6860;SDS011;3469;47.060;15.460;2023-01-25T14:45:11;19.00;;;11.80;;
6860;SDS011;3469;47.060;15.460;2023-01-25T14:47:41;17.57;;;12.47;;
6860;SDS011;3469;47.060;15.460;2023-01-25T14:50:32;16.53;;;11.03;;
6860;SDS011;3469;47.060;15.460;2023-01-25T15:00:37;15.77;;;11.27;;
6860;SDS011;3469;47.060;15.460;2023-01-25T15:10:35;19.57;;;12.27;;
6860;SDS011;3469;47.060;15.460;2023-01-25T15:19:20;19.70;;;12.87;;
6860;SDS011;3469;47.060;15.460;2023-01-25T15:22:41;23.27;;;14.87;;
6860;SDS011;3469;47.060;15.460;2023-01-25T15:28:58;25.03;;;16.13;;
6860;SDS011;3469;47.060;15.460;2023-01-25T15:31:29;23.63;;;13.80;;
6860;SDS011;3469;47.060;15.460;2023-01-25T15:38:29;24.57;;;14.63;;
6860;SDS011;3469;47.060;15.460;2023-01-25T15:40:59;23.07;;;13.80;;
6860;SDS011;3469;47.060;15.460;2023-01-25T15:44:02;21.63;;;13.47;;
6860;SDS011;3469;47.060;15.460;2023-01-25T15:49:53;25.90;;;14.10;;
6860;SDS011;3469;47.060;15.460;2023-01-25T15:52:33;19.50;;;12.73;;
6860;SDS011;3469;47.060;15.460;2023-01-25T15:55:03;28.30;;;14.17;;
6860;SDS011;3469;47.060;15.460;2023-01-25T15:57:34;21.43;;;12.90;;
6860;SDS011;3469;47.060;15.460;2023-01-25T16:09:33;28.10;;;15.30;;
6860;SDS011;3469;47.060;15.460;2023-01-25T16:12:03;21.93;;;13.40;;
6860;SDS011;3469;47.060;15.460;2023-01-25T16:14:33;26.03;;;13.90;;
6860;SDS011;3469;47.060;15.460;2023-01-25T16:17:10;24.87;;;14.07;;
6860;SDS011;3469;47.060;15.460;2023-01-25T16:19:46;23.10;;;15.00;;
6860;SDS011;3469;47.060;15.460;2023-01-25T16:22:17;23.17;;;12.67;;
6860;SDS011;3469;47.060;15.460;2023-01-25T16:24:54;24.77;;;14.75;;
6860;SDS011;3469;47.060;15.460;2023-01-25T16:32:01;25.73;;;13.60;;
6860;SDS011;3469;47.060;15.460;2023-01-25T16:42:13;27.57;;;14.87;;
6860;SDS011;3469;47.060;15.460;2023-01-25T16:51:04;25.20;;;15.20;;
6860;SDS011;3469;47.060;15.460;2023-01-25T20:32:43;36.75;;;20.13;;
